sensor_id;sensor_type;location;lat;lon;timestamp;temperature;humidity
27978;DHT22;15314;49.248;6.968;2024-01-16T00:00:54;1.70;99.90
27978;DHT22;15314;49.248;6.968;2024-01-16T00:02:13;1.70;99.90
27978;DHT22;15314;49.248;6.968;2024-01-16T00:03:32;1.70;99.90
27978;DHT22;15314;49.248;6.968;2024-01-16T00:04:52;1.70;99.90
27978;DHT22;15314;49.248;6.968;2024-01-16T00:06:11;1.80;99.90
27978;DHT22;15314;49.248;6.968;2024-01-16T00:07:31;1.90;99.90
27978;DHT22;15314;49.248;6.968;2024-01-16T00:08:52;2.00;99.90
27978;DHT22;15314;49.248;6.968;2024-01-16T00:10:11;2.00;99.90
27978;DHT22;15314;49.248;6.968;2024-01-16T00:11:31;2.00;99.90
27978;DHT22;15314;49.248;6.968;2024-01-16T00:12:50;2.00;99.90
27978;DHT22;15314;49.248;6.968;2024-01-16T00:14:09;2.10;99.90
27978;DHT22;15314;49.248;6.968;2024-01-16T00:15:28;2.00;99.90
27978;DHT22;15314;49.248;6.968;2024-01-16T00:16:47;2.00;99.90
27978;DHT22;15314;49.248;6.968;2024-01-16T00:18:04;2.00;99.90
27978;DHT22;15314;49.248;6.968;2024-01-16T00:19:24;2.00;99.90
27978;DHT22;15314;49.248;6.968;2024-01-16T00:20:43;2.00;99.90
27978;DHT22;15314;49.248;6.968;2024-01-16T00:22:02;1.90;99.90
27978;DHT22;15314;49.248;6.968;2024-01-16T00:23:24;1.90;99.90
27978;DHT22;15314;49.248;6.968;2024-01-16T00:24:44;1.90;99.90
27978;DHT22;15314;49.248;6.968;2024-01-16T00:26:00;1.90;99.90
27978;DHT22;15314;49.248;6.968;2024-01-16T00:27:19;1.90;99.90
27978;DHT22;15314;49.248;6.968;2024-01-16T00:28:43;1.90;99.90
27978;DHT22;15314;49.248;6.968;2024-01-16T00:30:02;1.90;99.90
27978;DHT22;15314;49.248;6.968;2024-01-16T00:31:21;1.90;99.90
27978;DHT22;15314;49.248;6.968;2024-01-16T00:32:40;1.90;99.90
27978;DHT22;15314;49.248;6.968;2024-01-16T00:34:00;1.90;99.90
27978;DHT22;15314;49.248;6.968;2024-01-16T00:35:19;1.90;99.90
27978;DHT22;15314;49.248;6.968;2024-01-16T00:36:39;1.90;99.90
27978;DHT22;15314;49.248;6.968;2024-01-16T00:37:58;1.90;99.90
27978;DHT22;15314;49.248;6.968;2024-01-16T00:39:17;1.90;99.90
27978;DHT22;15314;49.248;6.968;2024-01-16T00:40:36;1.90;99.90
27978;DHT22;15314;49.248;6.968;2024-01-16T00:41:55;1.90;99.90
27978;DHT22;15314;49.248;6.968;2024-01-16T00:43:15;1.90;99.90
27978;DHT22;15314;49.248;6.968;2024-01-16T00:44:34;2.00;99.90
27978;DHT22;15314;49.248;6.968;2024-01-16T00:45:54;2.00;99.90
27978;DHT22;15314;49.248;6.968;2024-01-16T00:47:13;2.00;99.90
27978;DHT22;15314;49.248;6.968;2024-01-16T00:48:32;2.00;99.90
27978;DHT22;15314;49.248;6.968;2024-01-16T00:49:51;2.10;99.90
27978;DHT22;15314;49.248;6.968;2024-01-16T00:51:10;2.00;99.90
27978;DHT22;15314;49.248;6.968;2024-01-16T00:52:29;2.00;99.90
27978;DHT22;15314;49.248;6.968;2024-01-16T00:53:48;2.00;99.90
27978;DHT22;15314;49.248;6.968;2024-01-16T00:55:08;2.00;99.90
27978;DHT22;15314;49.248;6.968;2024-01-16T00:56:24;2.00;99.90
27978;DHT22;15314;49.248;6.968;2024-01-16T00:57:46;2.00;99.90
27978;DHT22;15314;49.248;6.968;2024-01-16T00:59:05;1.90;99.90
27978;DHT22;15314;49.248;6.968;2024-01-16T01:00:24;1.90;99.90
27978;DHT22;15314;49.248;6.968;2024-01-16T01:01:44;1.90;99.90
27978;DHT22;15314;49.248;6.968;2024-01-16T01:03:06;2.00;99.90
27978;DHT22;15314;49.248;6.968;2024-01-16T01:04:22;1.90;99.90
27978;DHT22;15314;49.248;6.968;2024-01-16T01:05:41;2.00;99.90
27978;DHT22;15314;49.248;6.968;2024-01-16T01:06:58;2.00;99.90
27978;DHT22;15314;49.248;6.968;2024-01-16T01:08:17;2.00;99.90
27978;DHT22;15314;49.248;6.968;2024-01-16T01:09:36;2.00;99.90
27978;DHT22;15314;49.248;6.968;2024-01-16T01:10:55;2.00;99.90
27978;DHT22;15314;49.248;6.968;2024-01-16T01:12:14;2.00;99.90
27978;DHT22;15314;49.248;6.968;2024-01-16T01:13:33;2.10;99.90
27978;DHT22;15314;49.248;6.968;2024-01-16T01:14:52;2.00;99.90
27978;DHT22;15314;49.248;6.968;2024-01-16T01:16:12;2.10;99.90
27978;DHT22;15314;49.248;6.968;2024-01-16T01:17:31;2.10;99.90
27978;DHT22;15314;49.248;6.968;2024-01-16T01:18:50;2.10;99.90
27978;DHT22;15314;49.248;6.968;2024-01-16T01:20:09;2.00;99.90
27978;DHT22;15314;49.248;6.968;2024-01-16T01:21:31;2.00;99.90
27978;DHT22;15314;49.248;6.968;2024-01-16T01:22:50;1.90;99.90
27978;DHT22;15314;49.248;6.968;2024-01-16T01:24:06;2.00;99.90
27978;DHT22;15314;49.248;6.968;2024-01-16T01:25:25;1.90;99.90
27978;DHT22;15314;49.248;6.968;2024-01-16T01:26:44;1.90;99.90
27978;DHT22;15314;49.248;6.968;2024-01-16T01:28:01;1.90;99.90
27978;DHT22;15314;49.248;6.968;2024-01-16T01:29:20;1.90;99.90
27978;DHT22;15314;49.248;6.968;2024-01-16T01:30:39;1.80;99.90
27978;DHT22;15314;49.248;6.968;2024-01-16T01:31:58;1.70;99.90
27978;DHT22;15314;49.248;6.968;2024-01-16T01:33:18;1.60;99.90
27978;DHT22;15314;49.248;6.968;2024-01-16T01:34:34;1.60;99.90
27978;DHT22;15314;49.248;6.968;2024-01-16T01:35:54;1.70;99.90
27978;DHT22;15314;49.248;6.968;2024-01-16T01:37:10;1.70;99.90
27978;DHT22;15314;49.248;6.968;2024-01-16T01:38:29;1.70;99.90
27978;DHT22;15314;49.248;6.968;2024-01-16T01:39:48;1.70;99.90
27978;DHT22;15314;49.248;6.968;2024-01-16T01:41:07;1.70;99.90
27978;DHT22;15314;49.248;6.968;2024-01-16T01:42:27;1.70;99.90
27978;DHT22;15314;49.248;6.968;2024-01-16T01:43:46;1.70;99.90
27978;DHT22;15314;49.248;6.968;2024-01-16T01:45:06;1.60;99.90
27978;DHT22;15314;49.248;6.968;2024-01-16T01:46:26;1.70;99.90
27978;DHT22;15314;49.248;6.968;2024-01-16T01:47:46;1.70;99.90
27978;DHT22;15314;49.248;6.968;2024-01-16T01:49:06;1.70;99.90
27978;DHT22;15314;49.248;6.968;2024-01-16T01:50:22;1.70;99.90
27978;DHT22;15314;49.248;6.968;2024-01-16T01:51:42;1.70;99.90
27978;DHT22;15314;49.248;6.968;2024-01-16T01:53:01;1.70;99.90
27978;DHT22;15314;49.248;6.968;2024-01-16T01:54:21;1.70;99.90
27978;DHT22;15314;49.248;6.968;2024-01-16T01:55:41;1.70;99.90
27978;DHT22;15314;49.248;6.968;2024-01-16T01:57:02;1.70;99.90
27978;DHT22;15314;49.248;6.968;2024-01-16T01:58:19;1.70;99.90
27978;DHT22;15314;49.248;6.968;2024-01-16T01:59:38;1.60;99.90
27978;DHT22;15314;49.248;6.968;2024-01-16T02:00:58;1.60;99.90
27978;DHT22;15314;49.248;6.968;2024-01-16T02:02:19;1.60;99.90
27978;DHT22;15314;49.248;6.968;2024-01-16T02:03:42;1.60;99.90
27978;DHT22;15314;49.248;6.968;2024-01-16T02:05:02;1.60;99.90
27978;DHT22;15314;49.248;6.968;2024-01-16T02:06:23;1.60;99.90
27978;DHT22;15314;49.248;6.968;2024-01-16T02:07:42;1.60;99.90
27978;DHT22;15314;49.248;6.968;2024-01-16T02:08:59;1.60;99.90
27978;DHT22;15314;49.248;6.968;2024-01-16T02:10:19;1.50;99.90
27978;DHT22;15314;49.248;6.968;2024-01-16T02:11:38;1.60;99.90
27978;DHT22;15314;49.248;6.968;2024-01-16T02:12:58;1.60;99.90
27978;DHT22;15314;49.248;6.968;2024-01-16T02:14:17;1.70;99.90
27978;DHT22;15314;49.248;6.968;2024-01-16T02:15:37;1.60;99.90
27978;DHT22;15314;49.248;6.968;2024-01-16T02:16:59;1.50;99.90
27978;DHT22;15314;49.248;6.968;2024-01-16T02:18:19;1.60;99.90
27978;DHT22;15314;49.248;6.968;2024-01-16T02:19:38;1.60;99.90
27978;DHT22;15314;49.248;6.968;2024-01-16T02:21:00;1.60;99.90
27978;DHT22;15314;49.248;6.968;2024-01-16T02:22:25;1.60;99.90
27978;DHT22;15314;49.248;6.968;2024-01-16T02:23:47;1.70;99.90
27978;DHT22;15314;49.248;6.968;2024-01-16T02:25:07;1.70;99.90
27978;DHT22;15314;49.248;6.968;2024-01-16T02:26:26;1.70;99.90
27978;DHT22;15314;49.248;6.968;2024-01-16T02:27:47;1.70;99.90
27978;DHT22;15314;49.248;6.968;2024-01-16T02:29:06;1.70;99.90
27978;DHT22;15314;49.248;6.968;2024-01-16T02:30:25;1.80;99.90
27978;DHT22;15314;49.248;6.968;2024-01-16T02:31:44;1.90;99.90
27978;DHT22;15314;49.248;6.968;2024-01-16T02:33:04;1.90;99.90
27978;DHT22;15314;49.248;6.968;2024-01-16T02:34:23;1.70;99.90
27978;DHT22;15314;49.248;6.968;2024-01-16T02:35:42;1.80;99.90
27978;DHT22;15314;49.248;6.968;2024-01-16T02:37:02;1.80;99.90
27978;DHT22;15314;49.248;6.968;2024-01-16T02:38:21;1.80;99.90
27978;DHT22;15314;49.248;6.968;2024-01-16T02:39:40;1.70;99.90
27978;DHT22;15314;49.248;6.968;2024-01-16T02:40:59;1.70;99.90
27978;DHT22;15314;49.248;6.968;2024-01-16T02:42:19;1.60;99.90
27978;DHT22;15314;49.248;6.968;2024-01-16T02:43:35;1.60;99.90
27978;DHT22;15314;49.248;6.968;2024-01-16T02:44:54;1.60;99.90
27978;DHT22;15314;49.248;6.968;2024-01-16T02:46:10;1.60;99.90
27978;DHT22;15314;49.248;6.968;2024-01-16T02:47:30;1.60;99.90
27978;DHT22;15314;49.248;6.968;2024-01-16T02:48:49;1.60;99.90
27978;DHT22;15314;49.248;6.968;2024-01-16T02:50:09;1.60;99.90
27978;DHT22;15314;49.248;6.968;2024-01-16T02:51:29;1.60;99.90
27978;DHT22;15314;49.248;6.968;2024-01-16T02:52:48;1.70;99.90
27978;DHT22;15314;49.248;6.968;2024-01-16T02:54:07;1.80;99.90
27978;DHT22;15314;49.248;6.968;2024-01-16T02:55:27;1.60;99.90
27978;DHT22;15314;49.248;6.968;2024-01-16T02:56:46;1.70;99.90
27978;DHT22;15314;49.248;6.968;2024-01-16T02:58:06;1.80;99.90
27978;DHT22;15314;49.248;6.968;2024-01-16T02:59:25;1.70;99.90
27978;DHT22;15314;49.248;6.968;2024-01-16T03:00:44;1.90;99.90
27978;DHT22;15314;49.248;6.968;2024-01-16T03:02:03;1.80;99.90
27978;DHT22;15314;49.248;6.968;2024-01-16T03:03:23;1.90;99.90
27978;DHT22;15314;49.248;6.968;2024-01-16T03:04:43;1.90;99.90
27978;DHT22;15314;49.248;6.968;2024-01-16T03:06:03;1.90;99.90
27978;DHT22;15314;49.248;6.968;2024-01-16T03:07:23;1.90;99.90
27978;DHT22;15314;49.248;6.968;2024-01-16T03:08:42;1.90;99.90
27978;DHT22;15314;49.248;6.968;2024-01-16T03:10:02;1.90;99.90
27978;DHT22;15314;49.248;6.968;2024-01-16T03:11:21;1.90;99.90
27978;DHT22;15314;49.248;6.968;2024-01-16T03:12:40;1.70;99.90
27978;DHT22;15314;49.248;6.968;2024-01-16T03:13:59;1.80;99.90
27978;DHT22;15314;49.248;6.968;2024-01-16T03:15:18;1.70;99.90
27978;DHT22;15314;49.248;6.968;2024-01-16T03:16:38;1.60;99.90
27978;DHT22;15314;49.248;6.968;2024-01-16T03:17:58;1.60;99.90
27978;DHT22;15314;49.248;6.968;2024-01-16T03:19:15;1.60;99.90
27978;DHT22;15314;49.248;6.968;2024-01-16T03:20:34;1.50;99.90
27978;DHT22;15314;49.248;6.968;2024-01-16T03:21:53;1.50;99.90
27978;DHT22;15314;49.248;6.968;2024-01-16T03:23:09;1.60;99.90
27978;DHT22;15314;49.248;6.968;2024-01-16T03:24:28;1.50;99.90
27978;DHT22;15314;49.248;6.968;2024-01-16T03:25:48;1.60;99.90
27978;DHT22;15314;49.248;6.968;2024-01-16T03:27:04;1.60;99.90
27978;DHT22;15314;49.248;6.968;2024-01-16T03:28:20;1.50;99.90
27978;DHT22;15314;49.248;6.968;2024-01-16T03:29:36;1.50;99.90
27978;DHT22;15314;49.248;6.968;2024-01-16T03:30:55;1.60;99.90
27978;DHT22;15314;49.248;6.968;2024-01-16T03:32:14;1.60;99.90
27978;DHT22;15314;49.248;6.968;2024-01-16T03:33:34;1.60;99.90
27978;DHT22;15314;49.248;6.968;2024-01-16T03:34:53;1.60;99.90
27978;DHT22;15314;49.248;6.968;2024-01-16T03:36:12;1.60;99.90
27978;DHT22;15314;49.248;6.968;2024-01-16T03:37:33;1.70;99.90
27978;DHT22;15314;49.248;6.968;2024-01-16T03:38:52;1.70;99.90
27978;DHT22;15314;49.248;6.968;2024-01-16T03:40:11;1.60;99.90
27978;DHT22;15314;49.248;6.968;2024-01-16T03:41:32;1.60;99.90
27978;DHT22;15314;49.248;6.968;2024-01-16T03:42:51;1.60;99.90
27978;DHT22;15314;49.248;6.968;2024-01-16T03:44:10;1.60;99.90
27978;DHT22;15314;49.248;6.968;2024-01-16T03:45:29;1.50;99.90
27978;DHT22;15314;49.248;6.968;2024-01-16T03:46:48;1.50;99.90
27978;DHT22;15314;49.248;6.968;2024-01-16T03:48:07;1.40;99.90
27978;DHT22;15314;49.248;6.968;2024-01-16T03:49:27;1.40;99.90
27978;DHT22;15314;49.248;6.968;2024-01-16T03:50:46;1.40;99.90
27978;DHT22;15314;49.248;6.968;2024-01-16T03:52:06;1.50;99.90
27978;DHT22;15314;49.248;6.968;2024-01-16T03:53:25;1.40;99.90
27978;DHT22;15314;49.248;6.968;2024-01-16T03:54:44;1.40;99.90
27978;DHT22;15314;49.248;6.968;2024-01-16T03:56:04;1.40;99.90
27978;DHT22;15314;49.248;6.968;2024-01-16T03:57:23;1.40;99.90
27978;DHT22;15314;49.248;6.968;2024-01-16T03:58:43;1.40;99.90
27978;DHT22;15314;49.248;6.968;2024-01-16T03:59:59;1.40;99.90
27978;DHT22;15314;49.248;6.968;2024-01-16T04:01:18;1.50;99.90
27978;DHT22;15314;49.248;6.968;2024-01-16T04:02:45;1.40;99.90
27978;DHT22;15314;49.248;6.968;2024-01-16T04:04:04;1.50;99.90
27978;DHT22;15314;49.248;6.968;2024-01-16T04:05:25;1.50;99.90
27978;DHT22;15314;49.248;6.968;2024-01-16T04:06:46;1.50;99.90
27978;DHT22;15314;49.248;6.968;2024-01-16T04:08:02;1.40;99.90
27978;DHT22;15314;49.248;6.968;2024-01-16T04:09:21;1.40;99.90
27978;DHT22;15314;49.248;6.968;2024-01-16T04:10:41;1.40;99.90
27978;DHT22;15314;49.248;6.968;2024-01-16T04:11:58;1.40;99.90
27978;DHT22;15314;49.248;6.968;2024-01-16T04:13:17;1.40;99.90
27978;DHT22;15314;49.248;6.968;2024-01-16T04:14:36;1.40;99.90
27978;DHT22;15314;49.248;6.968;2024-01-16T04:15:55;1.40;99.90
27978;DHT22;15314;49.248;6.968;2024-01-16T04:17:14;1.50;99.90
27978;DHT22;15314;49.248;6.968;2024-01-16T04:18:37;1.40;99.90
27978;DHT22;15314;49.248;6.968;2024-01-16T04:19:59;1.50;99.90
27978;DHT22;15314;49.248;6.968;2024-01-16T04:21:15;1.50;99.90
27978;DHT22;15314;49.248;6.968;2024-01-16T04:22:35;1.40;99.90
27978;DHT22;15314;49.248;6.968;2024-01-16T04:23:54;1.40;99.90
27978;DHT22;15314;49.248;6.968;2024-01-16T04:25:13;1.40;99.90
27978;DHT22;15314;49.248;6.968;2024-01-16T04:26:36;1.40;99.90
27978;DHT22;15314;49.248;6.968;2024-01-16T04:27:56;1.40;99.90
27978;DHT22;15314;49.248;6.968;2024-01-16T04:29:15;1.40;99.90
27978;DHT22;15314;49.248;6.968;2024-01-16T04:30:34;1.50;99.90
27978;DHT22;15314;49.248;6.968;2024-01-16T04:31:50;1.40;99.90
27978;DHT22;15314;49.248;6.968;2024-01-16T04:33:09;1.40;99.90
27978;DHT22;15314;49.248;6.968;2024-01-16T04:34:28;1.40;99.90
27978;DHT22;15314;49.248;6.968;2024-01-16T04:35:47;1.40;99.90
27978;DHT22;15314;49.248;6.968;2024-01-16T04:37:06;1.30;99.90
27978;DHT22;15314;49.248;6.968;2024-01-16T04:38:25;1.30;99.90
27978;DHT22;15314;49.248;6.968;2024-01-16T04:39:44;1.30;99.90
27978;DHT22;15314;49.248;6.968;2024-01-16T04:41:04;1.20;99.90
27978;DHT22;15314;49.248;6.968;2024-01-16T04:42:23;1.20;99.90
27978;DHT22;15314;49.248;6.968;2024-01-16T04:43:42;1.20;99.90
27978;DHT22;15314;49.248;6.968;2024-01-16T04:45:02;1.10;99.90
27978;DHT22;15314;49.248;6.968;2024-01-16T04:46:21;0.90;99.90
27978;DHT22;15314;49.248;6.968;2024-01-16T04:47:40;0.90;99.90
27978;DHT22;15314;49.248;6.968;2024-01-16T04:48:59;0.80;99.90
27978;DHT22;15314;49.248;6.968;2024-01-16T04:50:18;0.60;99.90
27978;DHT22;15314;49.248;6.968;2024-01-16T04:51:38;0.70;99.90
27978;DHT22;15314;49.248;6.968;2024-01-16T04:52:58;0.70;99.90
27978;DHT22;15314;49.248;6.968;2024-01-16T04:54:15;0.70;99.90
27978;DHT22;15314;49.248;6.968;2024-01-16T04:55:35;0.70;99.90
27978;DHT22;15314;49.248;6.968;2024-01-16T04:56:51;0.70;99.90
27978;DHT22;15314;49.248;6.968;2024-01-16T04:58:10;0.70;99.90
27978;DHT22;15314;49.248;6.968;2024-01-16T04:59:29;0.80;99.90
27978;DHT22;15314;49.248;6.968;2024-01-16T05:00:49;0.70;99.90
27978;DHT22;15314;49.248;6.968;2024-01-16T05:02:08;0.70;99.90
27978;DHT22;15314;49.248;6.968;2024-01-16T05:03:27;0.70;99.90
27978;DHT22;15314;49.248;6.968;2024-01-16T05:04:47;0.80;99.90
27978;DHT22;15314;49.248;6.968;2024-01-16T05:06:15;0.90;99.90
27978;DHT22;15314;49.248;6.968;2024-01-16T05:07:34;1.00;99.90
27978;DHT22;15314;49.248;6.968;2024-01-16T05:08:51;1.00;99.90
27978;DHT22;15314;49.248;6.968;2024-01-16T05:10:11;1.10;99.90
27978;DHT22;15314;49.248;6.968;2024-01-16T05:11:31;1.20;99.90
27978;DHT22;15314;49.248;6.968;2024-01-16T05:12:50;1.20;99.90
27978;DHT22;15314;49.248;6.968;2024-01-16T05:14:10;1.10;99.90
27978;DHT22;15314;49.248;6.968;2024-01-16T05:15:29;1.20;99.90
27978;DHT22;15314;49.248;6.968;2024-01-16T05:16:48;1.20;99.90
27978;DHT22;15314;49.248;6.968;2024-01-16T05:18:08;1.20;99.90
27978;DHT22;15314;49.248;6.968;2024-01-16T05:19:28;1.10;99.90
27978;DHT22;15314;49.248;6.968;2024-01-16T05:20:47;1.10;99.90
27978;DHT22;15314;49.248;6.968;2024-01-16T05:22:06;1.10;99.90
27978;DHT22;15314;49.248;6.968;2024-01-16T05:23:25;1.10;99.90
27978;DHT22;15314;49.248;6.968;2024-01-16T05:24:42;1.10;99.90
27978;DHT22;15314;49.248;6.968;2024-01-16T05:26:01;1.00;99.90
27978;DHT22;15314;49.248;6.968;2024-01-16T05:27:20;1.00;99.90
27978;DHT22;15314;49.248;6.968;2024-01-16T05:28:36;0.90;99.90
27978;DHT22;15314;49.248;6.968;2024-01-16T05:29:57;0.90;99.90
27978;DHT22;15314;49.248;6.968;2024-01-16T05:31:16;0.90;99.90
27978;DHT22;15314;49.248;6.968;2024-01-16T05:32:35;0.90;99.90
27978;DHT22;15314;49.248;6.968;2024-01-16T05:33:55;0.80;99.90
27978;DHT22;15314;49.248;6.968;2024-01-16T05:35:14;0.70;99.90
27978;DHT22;15314;49.248;6.968;2024-01-16T05:36:34;0.70;99.90
27978;DHT22;15314;49.248;6.968;2024-01-16T05:37:53;0.60;99.90
27978;DHT22;15314;49.248;6.968;2024-01-16T05:39:12;0.60;99.90
27978;DHT22;15314;49.248;6.968;2024-01-16T05:40:32;0.50;99.90
27978;DHT22;15314;49.248;6.968;2024-01-16T05:41:51;0.40;99.90
27978;DHT22;15314;49.248;6.968;2024-01-16T05:43:10;0.30;99.90
27978;DHT22;15314;49.248;6.968;2024-01-16T05:44:29;0.30;99.90
27978;DHT22;15314;49.248;6.968;2024-01-16T05:45:48;0.30;99.90
27978;DHT22;15314;49.248;6.968;2024-01-16T05:47:09;0.20;99.90
27978;DHT22;15314;49.248;6.968;2024-01-16T05:48:28;0.10;99.90
27978;DHT22;15314;49.248;6.968;2024-01-16T05:49:44;0.10;99.90
27978;DHT22;15314;49.248;6.968;2024-01-16T05:51:04;0.10;99.90
27978;DHT22;15314;49.248;6.968;2024-01-16T05:52:23;0.10;99.90
27978;DHT22;15314;49.248;6.968;2024-01-16T05:53:42;0.10;99.90
27978;DHT22;15314;49.248;6.968;2024-01-16T05:55:04;0.20;99.90
27978;DHT22;15314;49.248;6.968;2024-01-16T05:56:20;0.20;99.90
27978;DHT22;15314;49.248;6.968;2024-01-16T05:57:40;0.20;99.90
27978;DHT22;15314;49.248;6.968;2024-01-16T05:58:59;0.20;99.90
27978;DHT22;15314;49.248;6.968;2024-01-16T06:00:19;0.10;99.90
27978;DHT22;15314;49.248;6.968;2024-01-16T06:01:41;0.10;99.90
27978;DHT22;15314;49.248;6.968;2024-01-16T06:03:01;0.10;99.90
27978;DHT22;15314;49.248;6.968;2024-01-16T06:04:19;0.10;99.90
27978;DHT22;15314;49.248;6.968;2024-01-16T06:05:35;0.10;99.90
27978;DHT22;15314;49.248;6.968;2024-01-16T06:06:54;0.10;99.90
27978;DHT22;15314;49.248;6.968;2024-01-16T06:08:13;0.10;99.90
27978;DHT22;15314;49.248;6.968;2024-01-16T06:09:33;0.10;99.90
27978;DHT22;15314;49.248;6.968;2024-01-16T06:10:53;0.10;99.90
27978;DHT22;15314;49.248;6.968;2024-01-16T06:12:09;0.10;99.90
27978;DHT22;15314;49.248;6.968;2024-01-16T06:13:28;0.20;99.90
27978;DHT22;15314;49.248;6.968;2024-01-16T06:14:46;0.10;99.90
27978;DHT22;15314;49.248;6.968;2024-01-16T06:16:08;0.10;99.90
27978;DHT22;15314;49.248;6.968;2024-01-16T06:17:27;0.10;99.90
27978;DHT22;15314;49.248;6.968;2024-01-16T06:18:46;0.10;99.90
27978;DHT22;15314;49.248;6.968;2024-01-16T06:20:06;0.00;99.90
27978;DHT22;15314;49.248;6.968;2024-01-16T06:21:25;0.00;99.90
27978;DHT22;15314;49.248;6.968;2024-01-16T06:22:45;0.00;99.90
27978;DHT22;15314;49.248;6.968;2024-01-16T06:24:01;0.00;99.90
27978;DHT22;15314;49.248;6.968;2024-01-16T06:25:20;0.10;99.90
27978;DHT22;15314;49.248;6.968;2024-01-16T06:26:39;-0.10;99.90
27978;DHT22;15314;49.248;6.968;2024-01-16T06:27:59;-0.10;99.90
27978;DHT22;15314;49.248;6.968;2024-01-16T06:29:18;-0.10;99.90
27978;DHT22;15314;49.248;6.968;2024-01-16T06:30:37;-0.10;99.90
27978;DHT22;15314;49.248;6.968;2024-01-16T06:31:53;-0.10;99.90
27978;DHT22;15314;49.248;6.968;2024-01-16T06:33:12;-0.10;99.90
27978;DHT22;15314;49.248;6.968;2024-01-16T06:34:28;-0.20;99.90
27978;DHT22;15314;49.248;6.968;2024-01-16T06:35:48;-0.20;99.90
27978;DHT22;15314;49.248;6.968;2024-01-16T06:37:07;-0.10;99.90
27978;DHT22;15314;49.248;6.968;2024-01-16T06:38:27;-0.20;99.90
27978;DHT22;15314;49.248;6.968;2024-01-16T06:39:46;-0.40;99.90
27978;DHT22;15314;49.248;6.968;2024-01-16T06:41:05;-0.30;99.90
27978;DHT22;15314;49.248;6.968;2024-01-16T06:42:25;-0.30;99.90
27978;DHT22;15314;49.248;6.968;2024-01-16T06:43:41;-0.30;99.90
27978;DHT22;15314;49.248;6.968;2024-01-16T06:45:00;-0.30;99.90
27978;DHT22;15314;49.248;6.968;2024-01-16T06:46:19;-0.30;99.90
27978;DHT22;15314;49.248;6.968;2024-01-16T06:47:38;-0.30;99.90
27978;DHT22;15314;49.248;6.968;2024-01-16T06:48:58;-0.30;99.90
27978;DHT22;15314;49.248;6.968;2024-01-16T06:50:17;-0.30;99.90
27978;DHT22;15314;49.248;6.968;2024-01-16T06:51:37;-0.30;99.90
27978;DHT22;15314;49.248;6.968;2024-01-16T06:52:56;-0.20;99.90
27978;DHT22;15314;49.248;6.968;2024-01-16T06:54:15;-0.20;99.90
27978;DHT22;15314;49.248;6.968;2024-01-16T06:55:34;-0.10;99.90
27978;DHT22;15314;49.248;6.968;2024-01-16T06:56:54;-0.30;99.90
27978;DHT22;15314;49.248;6.968;2024-01-16T06:58:13;-0.30;99.90
27978;DHT22;15314;49.248;6.968;2024-01-16T06:59:32;-0.30;99.90
27978;DHT22;15314;49.248;6.968;2024-01-16T07:00:51;-0.40;99.90
27978;DHT22;15314;49.248;6.968;2024-01-16T07:02:10;-0.40;99.90
27978;DHT22;15314;49.248;6.968;2024-01-16T07:03:29;-0.40;99.90
27978;DHT22;15314;49.248;6.968;2024-01-16T07:04:49;-0.40;99.90
27978;DHT22;15314;49.248;6.968;2024-01-16T07:06:08;-0.50;99.90
27978;DHT22;15314;49.248;6.968;2024-01-16T07:07:27;-0.50;99.90
27978;DHT22;15314;49.248;6.968;2024-01-16T07:08:47;-0.40;99.90
27978;DHT22;15314;49.248;6.968;2024-01-16T07:10:07;-0.50;99.90
27978;DHT22;15314;49.248;6.968;2024-01-16T07:11:37;-0.50;99.90
27978;DHT22;15314;49.248;6.968;2024-01-16T07:12:57;-0.50;99.90
27978;DHT22;15314;49.248;6.968;2024-01-16T07:14:16;-0.50;99.90
27978;DHT22;15314;49.248;6.968;2024-01-16T07:15:35;-0.50;99.90
27978;DHT22;15314;49.248;6.968;2024-01-16T07:16:54;-0.50;99.90
27978;DHT22;15314;49.248;6.968;2024-01-16T07:18:14;-0.50;99.90
27978;DHT22;15314;49.248;6.968;2024-01-16T07:19:33;-0.50;99.90
27978;DHT22;15314;49.248;6.968;2024-01-16T07:20:55;-0.50;99.90
27978;DHT22;15314;49.248;6.968;2024-01-16T07:22:14;-0.50;99.90
27978;DHT22;15314;49.248;6.968;2024-01-16T07:23:31;-0.50;99.90
27978;DHT22;15314;49.248;6.968;2024-01-16T07:24:50;-0.50;99.90
27978;DHT22;15314;49.248;6.968;2024-01-16T07:26:10;-0.50;99.90
27978;DHT22;15314;49.248;6.968;2024-01-16T07:27:28;-0.50;99.90
27978;DHT22;15314;49.248;6.968;2024-01-16T07:28:48;-0.40;99.90
27978;DHT22;15314;49.248;6.968;2024-01-16T07:30:08;-0.40;99.90
27978;DHT22;15314;49.248;6.968;2024-01-16T07:31:27;-0.40;99.90
27978;DHT22;15314;49.248;6.968;2024-01-16T07:32:43;-0.50;99.90
27978;DHT22;15314;49.248;6.968;2024-01-16T07:34:02;-0.40;99.90
27978;DHT22;15314;49.248;6.968;2024-01-16T07:35:21;-0.40;99.90
27978;DHT22;15314;49.248;6.968;2024-01-16T07:36:41;-0.40;99.90
27978;DHT22;15314;49.248;6.968;2024-01-16T07:38:00;-0.50;99.90
27978;DHT22;15314;49.248;6.968;2024-01-16T07:39:19;-0.40;99.90
27978;DHT22;15314;49.248;6.968;2024-01-16T07:40:41;-0.40;99.90
27978;DHT22;15314;49.248;6.968;2024-01-16T07:42:00;-0.40;99.90
27978;DHT22;15314;49.248;6.968;2024-01-16T07:43:19;-0.40;99.90
27978;DHT22;15314;49.248;6.968;2024-01-16T07:44:39;-0.50;99.90
27978;DHT22;15314;49.248;6.968;2024-01-16T07:45:58;-0.50;99.90
27978;DHT22;15314;49.248;6.968;2024-01-16T07:47:17;-0.50;99.90
27978;DHT22;15314;49.248;6.968;2024-01-16T07:48:36;-0.50;99.90
27978;DHT22;15314;49.248;6.968;2024-01-16T07:49:56;-0.50;99.90
27978;DHT22;15314;49.248;6.968;2024-01-16T07:51:16;-0.50;99.90
27978;DHT22;15314;49.248;6.968;2024-01-16T07:52:35;-0.50;99.90
27978;DHT22;15314;49.248;6.968;2024-01-16T07:54:05;-0.50;99.90
27978;DHT22;15314;49.248;6.968;2024-01-16T07:55:25;-0.60;99.90
27978;DHT22;15314;49.248;6.968;2024-01-16T07:56:45;-0.50;99.90
27978;DHT22;15314;49.248;6.968;2024-01-16T07:58:05;-0.50;99.90
27978;DHT22;15314;49.248;6.968;2024-01-16T07:59:25;-0.40;99.90
27978;DHT22;15314;49.248;6.968;2024-01-16T08:00:45;-0.50;99.90
27978;DHT22;15314;49.248;6.968;2024-01-16T08:02:04;-0.50;99.90
27978;DHT22;15314;49.248;6.968;2024-01-16T08:03:24;-0.40;99.90
27978;DHT22;15314;49.248;6.968;2024-01-16T08:04:43;-0.30;99.90
27978;DHT22;15314;49.248;6.968;2024-01-16T08:06:02;-0.30;99.90
27978;DHT22;15314;49.248;6.968;2024-01-16T08:07:22;-0.20;99.90
27978;DHT22;15314;49.248;6.968;2024-01-16T08:08:41;-0.20;99.90
27978;DHT22;15314;49.248;6.968;2024-01-16T08:10:00;-0.30;99.90
27978;DHT22;15314;49.248;6.968;2024-01-16T08:11:18;-0.30;99.90
27978;DHT22;15314;49.248;6.968;2024-01-16T08:12:38;-0.50;99.90
27978;DHT22;15314;49.248;6.968;2024-01-16T08:13:57;-0.50;99.90
27978;DHT22;15314;49.248;6.968;2024-01-16T08:15:13;-0.50;99.90
27978;DHT22;15314;49.248;6.968;2024-01-16T08:16:32;-0.60;99.90
27978;DHT22;15314;49.248;6.968;2024-01-16T08:17:52;-0.50;99.90
27978;DHT22;15314;49.248;6.968;2024-01-16T08:19:11;-0.40;99.90
27978;DHT22;15314;49.248;6.968;2024-01-16T08:20:27;-0.40;99.90
27978;DHT22;15314;49.248;6.968;2024-01-16T08:21:46;-0.20;99.90
27978;DHT22;15314;49.248;6.968;2024-01-16T08:23:05;-0.10;99.90
27978;DHT22;15314;49.248;6.968;2024-01-16T08:24:24;0.10;99.90
27978;DHT22;15314;49.248;6.968;2024-01-16T08:25:43;0.10;99.90
27978;DHT22;15314;49.248;6.968;2024-01-16T08:27:02;0.20;99.90